Wheeling Ohio County Airport
KHLG : now visible

Airfield :











YOU CAN JOIN US ON...

 
LOGIN :

Register | Disclaimer

   EN    FR    IT 

 









Legend :    VFR   Marginal VFR   IFR   Intensive IFR   Very Intensive IFR
Visi :
Ceiling :
>= 8 km
>= 3000ft
5 to 8 km
1000 to 3000 ft
1500m to 5 km
500 to 1000 ft
800 to 1500m
200 to 500 ft
< 800m
< 200 ft
Symbols :   Thunderstorms  Fog  Heavy snow  Heavy precipitations  Wind > 20 kt






- Airport Elevation : 1195 ft


KHLG - Wheeling Ohio County

CURRENT METAR :
  • 081753Z 25006KT 10SM SCT026 BKN033 18/11 A2972 RMK AO2 SLP063 T01780111 10183 20128 50005

EXPIRED METARs :
  • 081737Z 27008KT 10SM FEW022 SCT028 18/12 A2972 RMK AO2 T01780117
  • 081653Z 27007KT 10SM SCT017 OVC024 17/12 A2973 RMK AO2 SLP064 T01670117
  • 081622Z 28008KT 10SM SCT015 OVC022 16/12 A2973 RMK AO2 T01560117
  • 081553Z 28008KT 10SM OVC012 14/12 A2973 RMK AO2 SLP065 T01440117

TAF KHLG
Valid from the 08 at 18:00 until the 09 at 18:00 UTC


081749Z 0818/0918 29010KT P6SM FEW025
FM082300 VRB03KT P6SM FEW250
FM090600 20011KT 6SM -SHRA OVC040
FM091000 26012G22KT P6SM -SHRA BKN015
FM091400 29015G25KT P6SM VCSH BKN025



MET'MAP, your aeronautical weather chart ! - Copyright ORBIFLY December 2007 - Disclaimer

ORBIFLY MET'MAP TEAM :

Programming & Development : Alexandra Zaïnal
Concept & original design : Baudouin d'Aumeries
Assistance for programming : Marc-Olivier Méhu
Technical & hardware support : Manuel Goepfert

Contact : metmap@orbifly.com




SOURCES & CREDITS :

   NOAA       Earth
Advisory